sensor_id;sensor_type;location;lat;lon;timestamp;pressure;altitude;pressure_sealevel;temperature;humidity
60319;BME280;46163;52.306;5.634;2023-03-03T00:01:26;102414.78;;;15.78;48.08
60319;BME280;46163;52.306;5.634;2023-03-03T00:03:53;102419.53;;;15.76;47.99
60319;BME280;46163;52.306;5.634;2023-03-03T00:06:19;102411.88;;;15.73;48.12
60319;BME280;46163;52.306;5.634;2023-03-03T00:08:45;102415.56;;;15.72;47.96
60319;BME280;46163;52.306;5.634;2023-03-03T00:11:11;102417.63;;;15.70;48.06
60319;BME280;46163;52.306;5.634;2023-03-03T00:13:49;102418.84;;;15.68;48.03
60319;BME280;46163;52.306;5.634;2023-03-03T00:16:26;102411.00;;;15.66;48.04
60319;BME280;46163;52.306;5.634;2023-03-03T00:18:53;102415.75;;;15.64;47.99
60319;BME280;46163;52.306;5.634;2023-03-03T00:21:28;102414.25;;;15.62;48.03
60319;BME280;46163;52.306;5.634;2023-03-03T00:24:42;102415.47;;;15.59;47.84
60319;BME280;46163;52.306;5.634;2023-03-03T00:26:53;102411.94;;;15.59;48.15
60319;BME280;46163;52.306;5.634;2023-03-03T00:32:11;102417.88;;;15.54;48.17
60319;BME280;46163;52.306;5.634;2023-03-03T00:34:41;102416.63;;;15.50;47.95
60319;BME280;46163;52.306;5.634;2023-03-03T00:37:27;102423.66;;;15.51;48.10
60319;BME280;46163;52.306;5.634;2023-03-03T00:39:59;102419.31;;;15.50;48.05
60319;BME280;46163;52.306;5.634;2023-03-03T00:42:26;102424.06;;;15.48;48.07
60319;BME280;46163;52.306;5.634;2023-03-03T00:44:56;102426.06;;;15.46;48.15
60319;BME280;46163;52.306;5.634;2023-03-03T00:52:36;102434.53;;;15.43;47.98
60319;BME280;46163;52.306;5.634;2023-03-03T00:55:02;102434.91;;;15.40;48.04
60319;BME280;46163;52.306;5.634;2023-03-03T00:57:28;102435.13;;;15.38;48.01
60319;BME280;46163;52.306;5.634;2023-03-03T00:59:54;102444.16;;;15.37;48.06
60319;BME280;46163;52.306;5.634;2023-03-03T01:02:20;102442.50;;;15.36;48.02
60319;BME280;46163;52.306;5.634;2023-03-03T01:04:49;102440.03;;;15.35;47.89
60319;BME280;46163;52.306;5.634;2023-03-03T01:07:15;102436.72;;;15.33;47.88
60319;BME280;46163;52.306;5.634;2023-03-03T01:09:41;102435.06;;;15.32;47.98
60319;BME280;46163;52.306;5.634;2023-03-03T01:12:06;102439.78;;;15.30;48.10
60319;BME280;46163;52.306;5.634;2023-03-03T01:14:32;102442.47;;;15.30;47.91
60319;BME280;46163;52.306;5.634;2023-03-03T01:16:58;102439.13;;;15.27;47.89
60319;BME280;46163;52.306;5.634;2023-03-03T01:19:23;102434.78;;;15.26;47.88
60319;BME280;46163;52.306;5.634;2023-03-03T01:21:49;102435.00;;;15.25;47.96
60319;BME280;46163;52.306;5.634;2023-03-03T01:24:14;102428.53;;;15.19;47.98
60319;BME280;46163;52.306;5.634;2023-03-03T01:26:39;102436.22;;;15.22;47.77
60319;BME280;46163;52.306;5.634;2023-03-03T01:29:05;102432.91;;;15.20;47.92
60319;BME280;46163;52.306;5.634;2023-03-03T01:31:30;102431.22;;;15.19;48.03
60319;BME280;46163;52.306;5.634;2023-03-03T01:33:56;102425.41;;;15.16;47.87
60319;BME280;46163;52.306;5.634;2023-03-03T01:36:26;102427.69;;;15.19;48.00
60319;BME280;46163;52.306;5.634;2023-03-03T01:38:52;102425.22;;;15.17;47.93
60319;BME280;46163;52.306;5.634;2023-03-03T01:41:18;102423.56;;;15.16;47.78
60319;BME280;46163;52.306;5.634;2023-03-03T01:43:46;102425.16;;;15.11;47.89
60319;BME280;46163;52.306;5.634;2023-03-03T01:46:59;102429.31;;;15.13;47.89
60319;BME280;46163;52.306;5.634;2023-03-03T01:49:00;102433.03;;;15.12;47.78
60319;BME280;46163;52.306;5.634;2023-03-03T01:51:31;102433.03;;;15.12;47.80
60319;BME280;46163;52.306;5.634;2023-03-03T01:54:00;102432.38;;;15.10;47.73
60319;BME280;46163;52.306;5.634;2023-03-03T01:56:27;102426.56;;;15.07;47.81
60319;BME280;46163;52.306;5.634;2023-03-03T01:59:10;102435.44;;;15.07;47.86
60319;BME280;46163;52.306;5.634;2023-03-03T02:01:36;102431.75;;;15.08;48.05
60319;BME280;46163;52.306;5.634;2023-03-03T02:04:02;102423.81;;;15.00;47.90
60319;BME280;46163;52.306;5.634;2023-03-03T02:06:35;102423.25;;;15.05;47.71
60319;BME280;46163;52.306;5.634;2023-03-03T02:09:04;102427.78;;;15.04;47.68
60319;BME280;46163;52.306;5.634;2023-03-03T02:11:34;102391.91;;;14.84;47.82
60319;BME280;46163;52.306;5.634;2023-03-03T02:14:01;102419.09;;;15.02;47.83
60319;BME280;46163;52.306;5.634;2023-03-03T02:16:26;102427.13;;;15.02;48.07
60319;BME280;46163;52.306;5.634;2023-03-03T02:18:52;102427.31;;;15.01;47.74
60319;BME280;46163;52.306;5.634;2023-03-03T02:21:23;102431.84;;;15.00;47.63
60319;BME280;46163;52.306;5.634;2023-03-03T02:27:02;102417.19;;;14.96;47.92
60319;BME280;46163;52.306;5.634;2023-03-03T02:29:27;102426.44;;;14.93;47.71
60319;BME280;46163;52.306;5.634;2023-03-03T02:31:53;102427.91;;;14.96;47.75
60319;BME280;46163;52.306;5.634;2023-03-03T02:34:18;102429.94;;;14.94;47.60
60319;BME280;46163;52.306;5.634;2023-03-03T02:36:44;102425.59;;;14.93;47.70
60319;BME280;46163;52.306;5.634;2023-03-03T02:39:15;102429.09;;;14.93;47.76
60319;BME280;46163;52.306;5.634;2023-03-03T02:44:21;102426.00;;;14.90;47.77
60319;BME280;46163;52.306;5.634;2023-03-03T02:46:49;102421.56;;;14.82;47.38
60319;BME280;46163;52.306;5.634;2023-03-03T02:49:19;102418.97;;;14.89;47.72
60319;BME280;46163;52.306;5.634;2023-03-03T02:51:46;102421.84;;;14.87;47.58
60319;BME280;46163;52.306;5.634;2023-03-03T02:54:12;102421.03;;;14.87;47.72
60319;BME280;46163;52.306;5.634;2023-03-03T02:56:39;102420.75;;;14.82;47.50
60319;BME280;46163;52.306;5.634;2023-03-03T02:59:05;102427.41;;;14.86;47.46
60319;BME280;46163;52.306;5.634;2023-03-03T03:01:31;102426.75;;;14.84;47.58
60319;BME280;46163;52.306;5.634;2023-03-03T03:04:11;102428.59;;;14.83;47.76
60319;BME280;46163;52.306;5.634;2023-03-03T03:06:37;102427.75;;;14.83;47.71
60319;BME280;46163;52.306;5.634;2023-03-03T03:09:04;102427.75;;;14.83;47.68
60319;BME280;46163;52.306;5.634;2023-03-03T03:11:31;102431.47;;;14.82;47.63
60319;BME280;46163;52.306;5.634;2023-03-03T03:13:56;102423.63;;;14.80;47.60
60319;BME280;46163;52.306;5.634;2023-03-03T03:16:22;102421.97;;;14.79;47.73
60319;BME280;46163;52.306;5.634;2023-03-03T03:18:48;102418.47;;;14.79;47.54
60319;BME280;46163;52.306;5.634;2023-03-03T03:21:15;102418.66;;;14.77;47.56
60319;BME280;46163;52.306;5.634;2023-03-03T03:23:40;102415.13;;;14.77;47.60
60319;BME280;46163;52.306;5.634;2023-03-03T03:26:07;102420.66;;;14.75;47.54
60319;BME280;46163;52.306;5.634;2023-03-03T03:28:32;102412.63;;;14.75;47.69
60319;BME280;46163;52.306;5.634;2023-03-03T03:30:58;102420.88;;;14.74;47.76
60319;BME280;46163;52.306;5.634;2023-03-03T03:33:24;102415.50;;;14.74;47.63
60319;BME280;46163;52.306;5.634;2023-03-03T03:35:50;102421.25;;;14.70;47.78
60319;BME280;46163;52.306;5.634;2023-03-03T03:38:16;102428.28;;;14.72;47.66
60319;BME280;46163;52.306;5.634;2023-03-03T03:40:44;102435.28;;;14.73;47.75
60319;BME280;46163;52.306;5.634;2023-03-03T03:43:09;102436.31;;;14.72;47.63
60319;BME280;46163;52.306;5.634;2023-03-03T03:45:35;102441.88;;;14.70;47.69
60319;BME280;46163;52.306;5.634;2023-03-03T03:48:00;102438.34;;;14.69;47.71
60319;BME280;46163;52.306;5.634;2023-03-03T03:50:26;102429.84;;;14.66;47.67
60319;BME280;46163;52.306;5.634;2023-03-03T03:52:51;102439.09;;;14.63;47.49
60319;BME280;46163;52.306;5.634;2023-03-03T03:55:17;102440.56;;;14.66;47.37
60319;BME280;46163;52.306;5.634;2023-03-03T03:57:42;102442.22;;;14.67;47.67
60319;BME280;46163;52.306;5.634;2023-03-03T04:00:10;102447.78;;;14.65;47.48
60319;BME280;46163;52.306;5.634;2023-03-03T04:02:36;102431.88;;;14.64;47.46
60319;BME280;46163;52.306;5.634;2023-03-03T04:05:04;102441.78;;;14.63;47.57
60319;BME280;46163;52.306;5.634;2023-03-03T04:07:29;102442.59;;;14.64;47.80
60319;BME280;46163;52.306;5.634;2023-03-03T04:09:55;102445.09;;;14.65;47.77
60319;BME280;46163;52.306;5.634;2023-03-03T04:12:20;102446.13;;;14.64;47.66
60319;BME280;46163;52.306;5.634;2023-03-03T04:14:46;102443.25;;;14.66;47.66
60319;BME280;46163;52.306;5.634;2023-03-03T04:17:19;102445.72;;;14.67;47.30
60319;BME280;46163;52.306;5.634;2023-03-03T04:19:45;102435.41;;;14.64;47.43
60319;BME280;46163;52.306;5.634;2023-03-03T04:22:11;102443.31;;;14.73;47.51
60319;BME280;46163;52.306;5.634;2023-03-03T04:24:38;102444.59;;;14.77;47.63
60319;BME280;46163;52.306;5.634;2023-03-03T04:27:04;102432.59;;;14.73;47.56
60319;BME280;46163;52.306;5.634;2023-03-03T04:29:30;102454.00;;;14.87;47.26
60319;BME280;46163;52.306;5.634;2023-03-03T04:31:55;102445.03;;;14.95;46.90
60319;BME280;46163;52.306;5.634;2023-03-03T04:34:21;102440.53;;;15.02;46.80
60319;BME280;46163;52.306;5.634;2023-03-03T04:36:48;102442.06;;;15.11;46.83
60319;BME280;46163;52.306;5.634;2023-03-03T04:39:14;102446.94;;;15.22;46.35
60319;BME280;46163;52.306;5.634;2023-03-03T04:41:39;102445.97;;;15.30;46.16
60319;BME280;46163;52.306;5.634;2023-03-03T04:44:05;102450.00;;;15.41;46.04
60319;BME280;46163;52.306;5.634;2023-03-03T04:46:30;102438.94;;;15.50;45.97
60319;BME280;46163;52.306;5.634;2023-03-03T04:48:56;102439.44;;;15.61;45.89
60319;BME280;46163;52.306;5.634;2023-03-03T04:51:22;102439.09;;;15.70;45.95
60319;BME280;46163;52.306;5.634;2023-03-03T04:53:47;102431.94;;;15.77;45.59
60319;BME280;46163;52.306;5.634;2023-03-03T04:56:15;102433.44;;;15.87;45.43
60319;BME280;46163;52.306;5.634;2023-03-03T04:58:41;102436.78;;;15.95;45.53
60319;BME280;46163;52.306;5.634;2023-03-03T05:01:12;102430.63;;;16.01;45.32
60319;BME280;46163;52.306;5.634;2023-03-03T05:03:38;102438.97;;;16.13;44.97
60319;BME280;46163;52.306;5.634;2023-03-03T05:06:03;102435.47;;;16.19;44.92
60319;BME280;46163;52.306;5.634;2023-03-03T05:08:29;102428.50;;;16.25;44.75
60319;BME280;46163;52.306;5.634;2023-03-03T05:10:55;102436.56;;;16.31;44.67
60319;BME280;46163;52.306;5.634;2023-03-03T05:13:21;102432.47;;;16.35;44.67
60319;BME280;46163;52.306;5.634;2023-03-03T05:15:51;102432.69;;;16.40;44.48
60319;BME280;46163;52.306;5.634;2023-03-03T05:18:21;102434.78;;;16.45;44.56
60319;BME280;46163;52.306;5.634;2023-03-03T05:20:47;102433.34;;;16.49;44.56
60319;BME280;46163;52.306;5.634;2023-03-03T05:23:13;102436.25;;;16.54;44.50
60319;BME280;46163;52.306;5.634;2023-03-03T05:25:46;102435.03;;;16.57;44.15
60319;BME280;46163;52.306;5.634;2023-03-03T05:28:12;102432.13;;;16.58;44.20
60319;BME280;46163;52.306;5.634;2023-03-03T05:30:37;102441.25;;;16.64;44.18
60319;BME280;46163;52.306;5.634;2023-03-03T05:33:04;102441.50;;;16.69;44.29
60319;BME280;46163;52.306;5.634;2023-03-03T05:35:32;102437.38;;;16.73;44.48
60319;BME280;46163;52.306;5.634;2023-03-03T05:37:58;102434.28;;;16.76;44.36
60319;BME280;46163;52.306;5.634;2023-03-03T05:40:25;102441.75;;;16.81;44.27
60319;BME280;46163;52.306;5.634;2023-03-03T05:42:50;102445.88;;;16.83;44.31
60319;BME280;46163;52.306;5.634;2023-03-03T05:45:16;102445.06;;;16.89;44.19
60319;BME280;46163;52.306;5.634;2023-03-03T05:47:45;102444.28;;;16.95;44.15
60319;BME280;46163;52.306;5.634;2023-03-03T05:50:11;102446.13;;;17.02;43.82
60319;BME280;46163;52.306;5.634;2023-03-03T05:52:36;102455.25;;;17.07;43.78
60319;BME280;46163;52.306;5.634;2023-03-03T05:55:02;102446.59;;;17.12;43.71
60319;BME280;46163;52.306;5.634;2023-03-03T05:57:28;102446.78;;;17.17;43.88
60319;BME280;46163;52.306;5.634;2023-03-03T05:59:53;102450.53;;;17.22;43.66
60319;BME280;46163;52.306;5.634;2023-03-03T06:02:19;102447.19;;;17.27;43.77
60319;BME280;46163;52.306;5.634;2023-03-03T06:04:45;102453.84;;;17.31;43.39
60319;BME280;46163;52.306;5.634;2023-03-03T06:07:10;102430.44;;;17.25;43.54
60319;BME280;46163;52.306;5.634;2023-03-03T06:09:35;102452.59;;;17.40;43.56
60319;BME280;46163;52.306;5.634;2023-03-03T06:12:01;102446.78;;;17.43;43.41
60319;BME280;46163;52.306;5.634;2023-03-03T06:14:26;102451.34;;;17.49;43.07
60319;BME280;46163;52.306;5.634;2023-03-03T06:16:54;102448.25;;;17.52;43.15
60319;BME280;46163;52.306;5.634;2023-03-03T06:19:22;102448.84;;;17.55;43.09
60319;BME280;46163;52.306;5.634;2023-03-03T06:21:47;102442.25;;;17.57;42.98
60319;BME280;46163;52.306;5.634;2023-03-03T06:24:12;102443.47;;;17.61;43.07
60319;BME280;46163;52.306;5.634;2023-03-03T06:26:38;102449.28;;;17.65;42.97
60319;BME280;46163;52.306;5.634;2023-03-03T06:29:03;102449.91;;;17.67;43.03
60319;BME280;46163;52.306;5.634;2023-03-03T06:31:29;102452.19;;;17.70;43.08
60319;BME280;46163;52.306;5.634;2023-03-03T06:33:54;102458.00;;;17.73;42.87
60319;BME280;46163;52.306;5.634;2023-03-03T06:36:20;102459.66;;;17.74;42.70
60319;BME280;46163;52.306;5.634;2023-03-03T06:38:45;102460.28;;;17.76;42.78
60319;BME280;46163;52.306;5.634;2023-03-03T06:41:11;102455.50;;;17.78;42.66
60319;BME280;46163;52.306;5.634;2023-03-03T06:43:37;102458.81;;;17.80;42.58
60319;BME280;46163;52.306;5.634;2023-03-03T06:46:05;102463.78;;;17.84;42.62
60319;BME280;46163;52.306;5.634;2023-03-03T06:48:32;102453.84;;;17.84;42.79
60319;BME280;46163;52.306;5.634;2023-03-03T06:51:01;102469.56;;;17.87;42.62
60319;BME280;46163;52.306;5.634;2023-03-03T06:53:27;102459.84;;;17.86;42.73
60319;BME280;46163;52.306;5.634;2023-03-03T06:55:55;102468.97;;;17.92;42.69
60319;BME280;46163;52.306;5.634;2023-03-03T06:58:24;102475.16;;;17.92;42.70
60319;BME280;46163;52.306;5.634;2023-03-03T07:01:01;102472.03;;;17.95;42.69
60319;BME280;46163;52.306;5.634;2023-03-03T07:03:34;102471.00;;;17.96;42.60
60319;BME280;46163;52.306;5.634;2023-03-03T07:06:00;102472.25;;;18.00;42.84
60319;BME280;46163;52.306;5.634;2023-03-03T07:08:30;102480.72;;;18.04;42.70
60319;BME280;46163;52.306;5.634;2023-03-03T07:11:00;102487.56;;;18.06;42.51
60319;BME280;46163;52.306;5.634;2023-03-03T07:13:31;102486.53;;;18.07;42.22
60319;BME280;46163;52.306;5.634;2023-03-03T07:16:00;102488.19;;;18.08;42.51
60319;BME280;46163;52.306;5.634;2023-03-03T07:21:18;102496.06;;;18.10;42.67
60319;BME280;46163;52.306;5.634;2023-03-03T07:23:47;102501.25;;;18.12;42.53
60319;BME280;46163;52.306;5.634;2023-03-03T07:26:33;102503.50;;;18.15;42.58
60319;BME280;46163;52.306;5.634;2023-03-03T07:31:45;102506.84;;;18.17;42.66
60319;BME280;46163;52.306;5.634;2023-03-03T07:36:45;102509.94;;;18.20;42.90
60319;BME280;46163;52.306;5.634;2023-03-03T07:41:59;102508.66;;;18.23;42.75
60319;BME280;46163;52.306;5.634;2023-03-03T07:44:36;102521.09;;;18.24;42.96
60319;BME280;46163;52.306;5.634;2023-03-03T07:47:19;102524.66;;;18.24;42.83
60319;BME280;46163;52.306;5.634;2023-03-03T07:49:46;102522.16;;;18.23;42.95
60319;BME280;46163;52.306;5.634;2023-03-03T07:52:33;102532.09;;;18.22;43.04
60319;BME280;46163;52.306;5.634;2023-03-03T07:55:25;102535.00;;;18.21;42.46
60319;BME280;46163;52.306;5.634;2023-03-03T07:57:54;102532.31;;;18.21;42.89
60319;BME280;46163;52.306;5.634;2023-03-03T08:15:45;102556.38;;;18.16;42.82
60319;BME280;46163;52.306;5.634;2023-03-03T08:18:21;102559.25;;;18.14;42.99
60319;BME280;46163;52.306;5.634;2023-03-03T08:20:52;102553.03;;;18.14;43.50
60319;BME280;46163;52.306;5.634;2023-03-03T08:23:19;102560.31;;;18.13;43.70
60319;BME280;46163;52.306;5.634;2023-03-03T08:25:45;102563.00;;;18.13;43.54
60319;BME280;46163;52.306;5.634;2023-03-03T08:28:12;102564.66;;;18.14;43.69
60319;BME280;46163;52.306;5.634;2023-03-03T08:30:39;102565.28;;;18.16;43.87
60319;BME280;46163;52.306;5.634;2023-03-03T08:33:04;102562.38;;;18.18;43.54
60319;BME280;46163;52.306;5.634;2023-03-03T08:35:30;102561.34;;;18.19;43.57
60319;BME280;46163;52.306;5.634;2023-03-03T08:37:55;102561.97;;;18.21;43.44
60319;BME280;46163;52.306;5.634;2023-03-03T08:40:21;102558.81;;;18.24;43.54
60319;BME280;46163;52.306;5.634;2023-03-03T08:42:48;102565.91;;;18.25;43.47
60319;BME280;46163;52.306;5.634;2023-03-03T08:45:14;102565.47;;;18.28;43.69
60319;BME280;46163;52.306;5.634;2023-03-03T08:47:40;102565.03;;;18.31;43.58
60319;BME280;46163;52.306;5.634;2023-03-03T08:50:07;102566.69;;;18.32;43.75
60319;BME280;46163;52.306;5.634;2023-03-03T08:52:33;102548.31;;;18.16;43.67
60319;BME280;46163;52.306;5.634;2023-03-03T08:54:59;102580.16;;;18.32;43.57
60319;BME280;46163;52.306;5.634;2023-03-03T08:57:24;102573.75;;;18.33;43.66
60319;BME280;46163;52.306;5.634;2023-03-03T08:59:50;102571.03;;;18.33;43.71
60319;BME280;46163;52.306;5.634;2023-03-03T09:02:15;102573.75;;;18.33;43.41
60319;BME280;46163;52.306;5.634;2023-03-03T09:04:42;102570.22;;;18.32;43.61
60319;BME280;46163;52.306;5.634;2023-03-03T09:07:10;102548.69;;;18.13;43.54
60319;BME280;46163;52.306;5.634;2023-03-03T09:09:36;102572.09;;;18.32;43.65
60319;BME280;46163;52.306;5.634;2023-03-03T09:15:36;102571.91;;;18.27;43.80
60319;BME280;46163;52.306;5.634;2023-03-03T09:18:38;102564.88;;;18.26;43.76
60319;BME280;46163;52.306;5.634;2023-03-03T09:21:23;102567.56;;;18.26;44.00
60319;BME280;46163;52.306;5.634;2023-03-03T09:23:55;102564.03;;;18.25;44.00
60319;BME280;46163;52.306;5.634;2023-03-03T09:26:24;102564.88;;;18.26;43.74
60319;BME280;46163;52.306;5.634;2023-03-03T09:28:59;102570.03;;;18.27;43.86
60319;BME280;46163;52.306;5.634;2023-03-03T09:31:30;102558.66;;;18.25;43.79
60319;BME280;46163;52.306;5.634;2023-03-03T09:33:59;102567.34;;;18.27;43.86
60319;BME280;46163;52.306;5.634;2023-03-03T09:36:35;102562.56;;;18.29;43.54
60319;BME280;46163;52.306;5.634;2023-03-03T09:53:15;102569.38;;;18.32;44.01
60319;BME280;46163;52.306;5.634;2023-03-03T09:55:48;102562.13;;;18.32;43.99
60319;BME280;46163;52.306;5.634;2023-03-03T09:58:32;102565.47;;;18.34;43.99
60319;BME280;46163;52.306;5.634;2023-03-03T10:01:14;102570.66;;;18.36;44.00
60319;BME280;46163;52.306;5.634;2023-03-03T10:06:53;102569.59;;;18.37;43.75
60319;BME280;46163;52.306;5.634;2023-03-03T10:17:51;102571.47;;;18.43;43.92
60319;BME280;46163;52.306;5.634;2023-03-03T10:31:16;102566.47;;;18.53;43.81
60319;BME280;46163;52.306;5.634;2023-03-03T10:39:06;102556.28;;;18.55;43.43
60319;BME280;46163;52.306;5.634;2023-03-03T10:42:01;102564.13;;;18.63;43.47
60319;BME280;46163;52.306;5.634;2023-03-03T10:58:08;102573.69;;;18.66;43.46
60319;BME280;46163;52.306;5.634;2023-03-03T11:06:24;102576.41;;;18.66;43.51
60319;BME280;46163;52.306;5.634;2023-03-03T11:09:18;102570.59;;;18.62;43.43
60319;BME280;46163;52.306;5.634;2023-03-03T11:12:09;102569.53;;;18.63;43.69
60319;BME280;46163;52.306;5.634;2023-03-03T11:14:46;102564.13;;;18.63;43.25
60319;BME280;46163;52.306;5.634;2023-03-03T11:20:40;102564.59;;;18.54;43.62
60319;BME280;46163;52.306;5.634;2023-03-03T11:25:48;102564.59;;;18.54;43.40
60319;BME280;46163;52.306;5.634;2023-03-03T11:39:12;102561.28;;;18.45;43.78
60319;BME280;46163;52.306;5.634;2023-03-03T11:41:40;102561.91;;;18.41;43.59
60319;BME280;46163;52.306;5.634;2023-03-03T11:50:00;102555.47;;;18.48;43.58
60319;BME280;46163;52.306;5.634;2023-03-03T11:52:43;102544.28;;;18.51;43.74
60319;BME280;46163;52.306;5.634;2023-03-03T11:55:25;102540.53;;;18.52;43.63
60319;BME280;46163;52.306;5.634;2023-03-03T12:08:36;102539.06;;;18.56;44.35
60319;BME280;46163;52.306;5.634;2023-03-03T12:11:29;102541.75;;;18.63;44.37
60319;BME280;46163;52.306;5.634;2023-03-03T12:17:07;102538.66;;;18.66;44.41
60319;BME280;46163;52.306;5.634;2023-03-03T12:26:26;102535.97;;;18.59;44.68
60319;BME280;46163;52.306;5.634;2023-03-03T12:31:47;102535.31;;;18.57;45.26
60319;BME280;46163;52.306;5.634;2023-03-03T12:34:24;102534.94;;;18.54;45.14
60319;BME280;46163;52.306;5.634;2023-03-03T12:39:37;102544.69;;;18.48;45.32
60319;BME280;46163;52.306;5.634;2023-03-03T12:45:45;102533.72;;;18.43;45.22
60319;BME280;46163;52.306;5.634;2023-03-03T12:56:08;102517.34;;;18.38;45.68
60319;BME280;46163;52.306;5.634;2023-03-03T13:01:30;102510.75;;;18.34;45.39
60319;BME280;46163;52.306;5.634;2023-03-03T13:06:58;102513.44;;;18.34;45.56
60319;BME280;46163;52.306;5.634;2023-03-03T13:12:16;102505.75;;;18.31;45.55
60319;BME280;46163;52.306;5.634;2023-03-03T13:14:56;102507.59;;;18.37;45.63
60319;BME280;46163;52.306;5.634;2023-03-03T13:17:40;102507.38;;;18.39;45.51
60319;BME280;46163;52.306;5.634;2023-03-03T13:20:24;102509.66;;;18.42;45.50
60319;BME280;46163;52.306;5.634;2023-03-03T13:25:57;102507.97;;;18.47;45.30
60319;BME280;46163;52.306;5.634;2023-03-03T13:29:39;102512.94;;;18.50;45.08
60319;BME280;46163;52.306;5.634;2023-03-03T13:31:40;102512.53;;;18.53;45.37
60319;BME280;46163;52.306;5.634;2023-03-03T13:37:28;102511.47;;;18.61;45.00
60319;BME280;46163;52.306;5.634;2023-03-03T13:40:03;102510.03;;;18.65;45.00
60319;BME280;46163;52.306;5.634;2023-03-03T13:42:56;102503.19;;;18.69;45.07
60319;BME280;46163;52.306;5.634;2023-03-03T13:45:48;102508.13;;;18.72;45.07
60319;BME280;46163;52.306;5.634;2023-03-03T14:01:56;102493.75;;;18.85;44.96
60319;BME280;46163;52.306;5.634;2023-03-03T14:10:23;102484.56;;;18.92;44.84
60319;BME280;46163;52.306;5.634;2023-03-03T14:13:04;102492.47;;;18.94;44.84
60319;BME280;46163;52.306;5.634;2023-03-03T14:18:26;102487.09;;;18.94;44.68
60319;BME280;46163;52.306;5.634;2023-03-03T14:20:55;102481.69;;;18.94;44.52
60319;BME280;46163;52.306;5.634;2023-03-03T14:23:53;102484.56;;;18.92;44.59
60319;BME280;46163;52.306;5.634;2023-03-03T14:26:22;102477.53;;;18.91;44.59
60319;BME280;46163;52.306;5.634;2023-03-03T14:28:49;102478.56;;;18.90;44.67
60319;BME280;46163;52.306;5.634;2023-03-03T14:31:24;102478.78;;;18.89;44.74
60319;BME280;46163;52.306;5.634;2023-03-03T14:34:00;102480.88;;;18.87;44.84
60319;BME280;46163;52.306;5.634;2023-03-03T14:36:31;102478.19;;;18.87;45.07
60319;BME280;46163;52.306;5.634;2023-03-03T14:38:57;102471.97;;;18.86;45.05
60319;BME280;46163;52.306;5.634;2023-03-03T14:41:40;102472.16;;;18.85;45.11
60319;BME280;46163;52.306;5.634;2023-03-03T14:44:25;102476.09;;;18.89;45.12
60319;BME280;46163;52.306;5.634;2023-03-03T14:49:37;102466.09;;;18.96;45.29
60319;BME280;46163;52.306;5.634;2023-03-03T14:52:24;102458.84;;;18.97;45.21
60319;BME280;46163;52.306;5.634;2023-03-03T14:54:59;102439.38;;;18.88;45.26
60319;BME280;46163;52.306;5.634;2023-03-03T15:00:01;102457.56;;;18.99;45.09
60319;BME280;46163;52.306;5.634;2023-03-03T15:02:42;102458.38;;;19.00;45.37
60319;BME280;46163;52.306;5.634;2023-03-03T15:05:28;102453.81;;;19.00;45.21
60319;BME280;46163;52.306;5.634;2023-03-03T15:10:35;102452.38;;;18.98;44.91
60319;BME280;46163;52.306;5.634;2023-03-03T15:16:08;102447.00;;;18.98;45.14
60319;BME280;46163;52.306;5.634;2023-03-03T15:18:53;102451.78;;;18.96;45.21
60319;BME280;46163;52.306;5.634;2023-03-03T15:21:25;102452.00;;;18.94;45.41
60319;BME280;46163;52.306;5.634;2023-03-03T15:26:53;102434.59;;;18.90;45.36
60319;BME280;46163;52.306;5.634;2023-03-03T15:35:10;102443.97;;;18.81;45.58
60319;BME280;46163;52.306;5.634;2023-03-03T15:37:58;102439.84;;;18.78;45.57
60319;BME280;46163;52.306;5.634;2023-03-03T15:41:01;102442.13;;;18.75;45.62
60319;BME280;46163;52.306;5.634;2023-03-03T15:43:55;102438.47;;;18.69;45.71
60319;BME280;46163;52.306;5.634;2023-03-03T15:55:19;102432.22;;;18.62;49.86
60319;BME280;46163;52.306;5.634;2023-03-03T16:03:00;102426.22;;;18.67;53.10
60319;BME280;46163;52.306;5.634;2023-03-03T16:05:35;102422.47;;;18.68;54.07
60319;BME280;46163;52.306;5.634;2023-03-03T16:08:10;102435.75;;;18.69;54.67
60319;BME280;46163;52.306;5.634;2023-03-03T16:11:08;102437.41;;;18.70;55.46
60319;BME280;46163;52.306;5.634;2023-03-03T16:16:34;102432.19;;;18.75;55.59
60319;BME280;46163;52.306;5.634;2023-03-03T16:19:10;102440.50;;;18.74;55.60
60319;BME280;46163;52.306;5.634;2023-03-03T16:32:49;102436.50;;;18.83;56.65
60319;BME280;46163;52.306;5.634;2023-03-03T16:35:54;102431.09;;;18.83;55.92
60319;BME280;46163;52.306;5.634;2023-03-03T16:39:14;102432.16;;;18.82;56.06
60319;BME280;46163;52.306;5.634;2023-03-03T16:41:21;102421.59;;;18.74;56.13
60319;BME280;46163;52.306;5.634;2023-03-03T16:44:07;102433.19;;;18.81;55.57
60319;BME280;46163;52.306;5.634;2023-03-03T16:46:40;102434.84;;;18.82;54.94
60319;BME280;46163;52.306;5.634;2023-03-03T16:49:27;102435.88;;;18.81;54.00
60319;BME280;46163;52.306;5.634;2023-03-03T16:52:02;102443.16;;;18.80;53.14
60319;BME280;46163;52.306;5.634;2023-03-03T16:54:54;102434.25;;;18.80;52.22
60319;BME280;46163;52.306;5.634;2023-03-03T17:00:29;102443.38;;;18.79;51.84
60319;BME280;46163;52.306;5.634;2023-03-03T17:03:46;102439.44;;;18.75;51.37
60319;BME280;46163;52.306;5.634;2023-03-03T17:06:20;102433.66;;;18.71;51.22
60319;BME280;46163;52.306;5.634;2023-03-03T17:17:43;102452.38;;;18.59;50.70
60319;BME280;46163;52.306;5.634;2023-03-03T17:20:31;102454.44;;;18.57;50.65
60319;BME280;46163;52.306;5.634;2023-03-03T17:26:10;102458.19;;;18.50;50.46
60319;BME280;46163;52.306;5.634;2023-03-03T17:31:21;102465.28;;;18.44;50.43
60319;BME280;46163;52.306;5.634;2023-03-03T17:34:20;102465.50;;;18.43;49.96
60319;BME280;46163;52.306;5.634;2023-03-03T17:36:54;102467.56;;;18.41;50.63
60319;BME280;46163;52.306;5.634;2023-03-03T17:50:52;102473.63;;;18.23;51.07